sensor_id;sensor_type;location;lat;lon;timestamp;temperature;humidity
63899;HTU21D;50070;-32.946;-60.652;2023-06-22T00:01:18;12.70;118.99
63899;HTU21D;50070;-32.946;-60.652;2023-06-22T00:03:45;12.78;118.99
63899;HTU21D;50070;-32.946;-60.652;2023-06-22T00:06:12;12.57;118.99
63899;HTU21D;50070;-32.946;-60.652;2023-06-22T00:08:39;12.69;118.99
63899;HTU21D;50070;-32.946;-60.652;2023-06-22T00:11:06;12.71;118.99
63899;HTU21D;50070;-32.946;-60.652;2023-06-22T00:13:33;12.60;118.99
63899;HTU21D;50070;-32.946;-60.652;2023-06-22T00:15:59;12.60;118.99
63899;HTU21D;50070;-32.946;-60.652;2023-06-22T00:18:26;12.50;118.99
63899;HTU21D;50070;-32.946;-60.652;2023-06-22T00:20:56;12.66;118.99
63899;HTU21D;50070;-32.946;-60.652;2023-06-22T00:23:23;12.53;118.99
63899;HTU21D;50070;-32.946;-60.652;2023-06-22T00:25:50;12.61;118.99
63899;HTU21D;50070;-32.946;-60.652;2023-06-22T00:28:17;12.64;118.99
63899;HTU21D;50070;-32.946;-60.652;2023-06-22T00:30:44;12.95;118.99
63899;HTU21D;50070;-32.946;-60.652;2023-06-22T00:33:11;12.84;118.99
63899;HTU21D;50070;-32.946;-60.652;2023-06-22T00:35:38;12.85;118.99
63899;HTU21D;50070;-32.946;-60.652;2023-06-22T00:38:07;12.99;118.99
63899;HTU21D;50070;-32.946;-60.652;2023-06-22T00:40:34;12.94;118.99
63899;HTU21D;50070;-32.946;-60.652;2023-06-22T00:43:01;12.79;118.99
63899;HTU21D;50070;-32.946;-60.652;2023-06-22T00:45:28;12.81;118.99
63899;HTU21D;50070;-32.946;-60.652;2023-06-22T00:47:58;12.89;118.99
63899;HTU21D;50070;-32.946;-60.652;2023-06-22T00:50:27;12.91;118.99
63899;HTU21D;50070;-32.946;-60.652;2023-06-22T00:53:03;12.93;118.99
63899;HTU21D;50070;-32.946;-60.652;2023-06-22T00:55:41;13.08;118.99
63899;HTU21D;50070;-32.946;-60.652;2023-06-22T00:58:10;12.94;118.99
63899;HTU21D;50070;-32.946;-60.652;2023-06-22T01:00:38;12.88;118.99
63899;HTU21D;50070;-32.946;-60.652;2023-06-22T01:03:05;12.85;118.99
63899;HTU21D;50070;-32.946;-60.652;2023-06-22T01:05:35;12.76;118.99
63899;HTU21D;50070;-32.946;-60.652;2023-06-22T01:11:01;12.72;118.99
63899;HTU21D;50070;-32.946;-60.652;2023-06-22T01:16:25;12.69;118.99
63899;HTU21D;50070;-32.946;-60.652;2023-06-22T01:18:55;12.66;118.99
63899;HTU21D;50070;-32.946;-60.652;2023-06-22T01:21:25;12.63;118.99
63899;HTU21D;50070;-32.946;-60.652;2023-06-22T01:29:14;12.55;118.99
63899;HTU21D;50070;-32.946;-60.652;2023-06-22T01:31:42;12.35;118.99
63899;HTU21D;50070;-32.946;-60.652;2023-06-22T01:34:11;12.15;118.99
63899;HTU21D;50070;-32.946;-60.652;2023-06-22T01:36:39;11.99;118.99
63899;HTU21D;50070;-32.946;-60.652;2023-06-22T01:39:07;11.84;118.99
63899;HTU21D;50070;-32.946;-60.652;2023-06-22T01:41:36;12.08;118.99
63899;HTU21D;50070;-32.946;-60.652;2023-06-22T01:44:05;12.20;118.99
63899;HTU21D;50070;-32.946;-60.652;2023-06-22T01:46:36;12.07;118.99
63899;HTU21D;50070;-32.946;-60.652;2023-06-22T01:49:05;12.23;118.99
63899;HTU21D;50070;-32.946;-60.652;2023-06-22T01:51:32;12.18;118.99
63899;HTU21D;50070;-32.946;-60.652;2023-06-22T01:53:59;12.17;118.99
63899;HTU21D;50070;-32.946;-60.652;2023-06-22T01:56:26;12.00;118.99
63899;HTU21D;50070;-32.946;-60.652;2023-06-22T01:59:09;12.01;118.99
63899;HTU21D;50070;-32.946;-60.652;2023-06-22T02:01:49;11.99;118.99
63899;HTU21D;50070;-32.946;-60.652;2023-06-22T02:04:23;11.87;118.99
63899;HTU21D;50070;-32.946;-60.652;2023-06-22T02:06:56;11.90;118.99
63899;HTU21D;50070;-32.946;-60.652;2023-06-22T02:09:27;11.89;118.99
63899;HTU21D;50070;-32.946;-60.652;2023-06-22T02:11:56;11.93;118.99
63899;HTU21D;50070;-32.946;-60.652;2023-06-22T02:14:24;11.87;118.99
63899;HTU21D;50070;-32.946;-60.652;2023-06-22T02:16:52;11.79;118.99
63899;HTU21D;50070;-32.946;-60.652;2023-06-22T02:19:23;11.92;118.99
63899;HTU21D;50070;-32.946;-60.652;2023-06-22T02:21:51;11.98;118.99
63899;HTU21D;50070;-32.946;-60.652;2023-06-22T02:24:17;11.93;118.99
63899;HTU21D;50070;-32.946;-60.652;2023-06-22T02:26:44;11.78;118.99
63899;HTU21D;50070;-32.946;-60.652;2023-06-22T02:29:11;11.74;118.99
63899;HTU21D;50070;-32.946;-60.652;2023-06-22T02:31:38;11.79;118.99
63899;HTU21D;50070;-32.946;-60.652;2023-06-22T02:34:05;11.59;118.99
63899;HTU21D;50070;-32.946;-60.652;2023-06-22T02:36:32;11.53;118.99
63899;HTU21D;50070;-32.946;-60.652;2023-06-22T02:38:59;11.52;118.99
63899;HTU21D;50070;-32.946;-60.652;2023-06-22T02:41:27;11.56;118.99
63899;HTU21D;50070;-32.946;-60.652;2023-06-22T02:43:54;11.59;118.99
63899;HTU21D;50070;-32.946;-60.652;2023-06-22T02:46:21;11.63;118.99
63899;HTU21D;50070;-32.946;-60.652;2023-06-22T02:48:48;11.40;118.99
63899;HTU21D;50070;-32.946;-60.652;2023-06-22T02:51:15;11.62;118.99
63899;HTU21D;50070;-32.946;-60.652;2023-06-22T02:53:41;11.66;118.99
63899;HTU21D;50070;-32.946;-60.652;2023-06-22T02:56:10;11.70;118.99
63899;HTU21D;50070;-32.946;-60.652;2023-06-22T02:58:38;11.68;118.99
63899;HTU21D;50070;-32.946;-60.652;2023-06-22T03:01:06;11.71;118.99
63899;HTU21D;50070;-32.946;-60.652;2023-06-22T03:03:33;11.79;118.99
63899;HTU21D;50070;-32.946;-60.652;2023-06-22T03:06:00;11.73;118.99
63899;HTU21D;50070;-32.946;-60.652;2023-06-22T03:08:29;11.75;118.99
63899;HTU21D;50070;-32.946;-60.652;2023-06-22T03:10:56;11.68;118.99
63899;HTU21D;50070;-32.946;-60.652;2023-06-22T03:13:23;11.56;118.99
63899;HTU21D;50070;-32.946;-60.652;2023-06-22T03:15:50;11.45;118.99
63899;HTU21D;50070;-32.946;-60.652;2023-06-22T03:18:17;11.44;118.99
63899;HTU21D;50070;-32.946;-60.652;2023-06-22T03:20:44;11.42;118.99
63899;HTU21D;50070;-32.946;-60.652;2023-06-22T03:23:10;11.59;118.99
63899;HTU21D;50070;-32.946;-60.652;2023-06-22T03:25:37;11.57;118.99
63899;HTU21D;50070;-32.946;-60.652;2023-06-22T03:28:04;11.49;118.99
63899;HTU21D;50070;-32.946;-60.652;2023-06-22T03:30:31;11.46;118.99
63899;HTU21D;50070;-32.946;-60.652;2023-06-22T03:32:57;11.46;118.99
63899;HTU21D;50070;-32.946;-60.652;2023-06-22T03:35:24;11.40;118.99
63899;HTU21D;50070;-32.946;-60.652;2023-06-22T03:37:51;11.30;118.99
63899;HTU21D;50070;-32.946;-60.652;2023-06-22T03:40:18;11.47;118.99
63899;HTU21D;50070;-32.946;-60.652;2023-06-22T03:42:45;11.51;118.99
63899;HTU21D;50070;-32.946;-60.652;2023-06-22T03:45:12;11.42;118.99
63899;HTU21D;50070;-32.946;-60.652;2023-06-22T03:47:38;11.56;118.99
63899;HTU21D;50070;-32.946;-60.652;2023-06-22T03:50:05;11.60;118.99
63899;HTU21D;50070;-32.946;-60.652;2023-06-22T03:52:33;11.49;118.99
63899;HTU21D;50070;-32.946;-60.652;2023-06-22T03:54:59;11.26;118.99
63899;HTU21D;50070;-32.946;-60.652;2023-06-22T03:57:26;11.32;118.99
63899;HTU21D;50070;-32.946;-60.652;2023-06-22T03:59:56;11.32;118.99
63899;HTU21D;50070;-32.946;-60.652;2023-06-22T04:02:23;11.42;118.99
63899;HTU21D;50070;-32.946;-60.652;2023-06-22T04:04:49;11.49;118.99
63899;HTU21D;50070;-32.946;-60.652;2023-06-22T04:07:16;11.41;118.99
63899;HTU21D;50070;-32.946;-60.652;2023-06-22T04:09:44;11.27;118.99
63899;HTU21D;50070;-32.946;-60.652;2023-06-22T04:12:10;11.15;118.99
63899;HTU21D;50070;-32.946;-60.652;2023-06-22T04:14:37;11.27;118.99
63899;HTU21D;50070;-32.946;-60.652;2023-06-22T04:17:04;11.22;118.99
63899;HTU21D;50070;-32.946;-60.652;2023-06-22T04:19:31;11.36;118.99
63899;HTU21D;50070;-32.946;-60.652;2023-06-22T04:21:58;11.31;118.99
63899;HTU21D;50070;-32.946;-60.652;2023-06-22T04:24:25;11.20;118.99
63899;HTU21D;50070;-32.946;-60.652;2023-06-22T04:26:51;11.20;118.99
63899;HTU21D;50070;-32.946;-60.652;2023-06-22T04:29:21;11.23;118.99
63899;HTU21D;50070;-32.946;-60.652;2023-06-22T04:31:56;11.23;118.99
63899;HTU21D;50070;-32.946;-60.652;2023-06-22T04:34:25;11.37;118.99
63899;HTU21D;50070;-32.946;-60.652;2023-06-22T04:36:54;11.32;118.99
63899;HTU21D;50070;-32.946;-60.652;2023-06-22T04:39:22;11.24;118.99
63899;HTU21D;50070;-32.946;-60.652;2023-06-22T04:41:49;11.23;118.99
63899;HTU21D;50070;-32.946;-60.652;2023-06-22T04:44:18;11.04;118.99
63899;HTU21D;50070;-32.946;-60.652;2023-06-22T04:46:58;11.20;118.99
63899;HTU21D;50070;-32.946;-60.652;2023-06-22T04:49:35;11.28;118.99
63899;HTU21D;50070;-32.946;-60.652;2023-06-22T04:52:07;11.15;118.99
63899;HTU21D;50070;-32.946;-60.652;2023-06-22T04:54:35;11.16;118.99
63899;HTU21D;50070;-32.946;-60.652;2023-06-22T04:57:07;11.09;118.99
63899;HTU21D;50070;-32.946;-60.652;2023-06-22T04:59:37;10.95;118.99
63899;HTU21D;50070;-32.946;-60.652;2023-06-22T05:02:08;10.80;118.99
63899;HTU21D;50070;-32.946;-60.652;2023-06-22T05:04:35;10.74;118.99
63899;HTU21D;50070;-32.946;-60.652;2023-06-22T05:07:04;10.89;118.99
63899;HTU21D;50070;-32.946;-60.652;2023-06-22T05:09:31;10.89;118.99
63899;HTU21D;50070;-32.946;-60.652;2023-06-22T05:11:59;10.92;118.99
63899;HTU21D;50070;-32.946;-60.652;2023-06-22T05:14:29;11.02;118.99
63899;HTU21D;50070;-32.946;-60.652;2023-06-22T05:16:56;11.00;118.99
63899;HTU21D;50070;-32.946;-60.652;2023-06-22T05:19:30;11.12;118.99
63899;HTU21D;50070;-32.946;-60.652;2023-06-22T05:21:59;11.02;118.99
63899;HTU21D;50070;-32.946;-60.652;2023-06-22T05:24:26;10.99;118.99
63899;HTU21D;50070;-32.946;-60.652;2023-06-22T05:26:53;10.99;118.99
63899;HTU21D;50070;-32.946;-60.652;2023-06-22T05:29:19;10.87;118.99
63899;HTU21D;50070;-32.946;-60.652;2023-06-22T05:31:48;11.00;118.99
63899;HTU21D;50070;-32.946;-60.652;2023-06-22T05:34:15;10.87;118.99
63899;HTU21D;50070;-32.946;-60.652;2023-06-22T05:36:42;10.83;118.99
63899;HTU21D;50070;-32.946;-60.652;2023-06-22T05:39:14;10.79;118.99
63899;HTU21D;50070;-32.946;-60.652;2023-06-22T05:41:41;10.59;118.99
63899;HTU21D;50070;-32.946;-60.652;2023-06-22T05:44:11;10.67;118.99
63899;HTU21D;50070;-32.946;-60.652;2023-06-22T05:46:42;10.58;118.99
63899;HTU21D;50070;-32.946;-60.652;2023-06-22T05:49:15;10.41;118.99
63899;HTU21D;50070;-32.946;-60.652;2023-06-22T05:51:42;10.83;118.99
63899;HTU21D;50070;-32.946;-60.652;2023-06-22T05:54:09;10.66;118.99
63899;HTU21D;50070;-32.946;-60.652;2023-06-22T05:56:36;10.67;118.99
63899;HTU21D;50070;-32.946;-60.652;2023-06-22T05:59:04;10.74;118.99
63899;HTU21D;50070;-32.946;-60.652;2023-06-22T06:01:31;10.92;118.99
63899;HTU21D;50070;-32.946;-60.652;2023-06-22T06:04:01;10.78;118.99
63899;HTU21D;50070;-32.946;-60.652;2023-06-22T06:06:29;10.49;118.99
63899;HTU21D;50070;-32.946;-60.652;2023-06-22T06:08:56;10.49;118.99
63899;HTU21D;50070;-32.946;-60.652;2023-06-22T06:11:23;10.49;118.99
63899;HTU21D;50070;-32.946;-60.652;2023-06-22T06:13:50;10.65;118.99
63899;HTU21D;50070;-32.946;-60.652;2023-06-22T06:16:17;10.81;118.99
63899;HTU21D;50070;-32.946;-60.652;2023-06-22T06:18:44;10.56;118.99
63899;HTU21D;50070;-32.946;-60.652;2023-06-22T06:21:10;10.38;118.99
63899;HTU21D;50070;-32.946;-60.652;2023-06-22T06:23:37;10.39;118.99
63899;HTU21D;50070;-32.946;-60.652;2023-06-22T06:26:04;10.46;118.99
63899;HTU21D;50070;-32.946;-60.652;2023-06-22T06:28:33;10.55;118.99
63899;HTU21D;50070;-32.946;-60.652;2023-06-22T06:31:00;10.42;118.99
63899;HTU21D;50070;-32.946;-60.652;2023-06-22T06:33:26;10.40;118.99
63899;HTU21D;50070;-32.946;-60.652;2023-06-22T06:35:53;10.48;118.99
63899;HTU21D;50070;-32.946;-60.652;2023-06-22T06:38:21;10.40;118.99
63899;HTU21D;50070;-32.946;-60.652;2023-06-22T06:40:49;10.23;118.99
63899;HTU21D;50070;-32.946;-60.652;2023-06-22T06:43:16;10.30;118.99
63899;HTU21D;50070;-32.946;-60.652;2023-06-22T06:45:43;10.31;118.99
63899;HTU21D;50070;-32.946;-60.652;2023-06-22T06:48:10;10.29;118.99
63899;HTU21D;50070;-32.946;-60.652;2023-06-22T06:50:37;10.41;118.99
63899;HTU21D;50070;-32.946;-60.652;2023-06-22T06:53:03;10.63;118.99
63899;HTU21D;50070;-32.946;-60.652;2023-06-22T06:55:31;10.56;118.99
63899;HTU21D;50070;-32.946;-60.652;2023-06-22T06:57:59;10.33;118.99
63899;HTU21D;50070;-32.946;-60.652;2023-06-22T07:00:26;10.49;118.99
63899;HTU21D;50070;-32.946;-60.652;2023-06-22T07:02:53;10.45;118.99
63899;HTU21D;50070;-32.946;-60.652;2023-06-22T07:05:20;10.49;118.99
63899;HTU21D;50070;-32.946;-60.652;2023-06-22T07:07:46;10.57;118.99
63899;HTU21D;50070;-32.946;-60.652;2023-06-22T07:10:13;10.55;118.99
63899;HTU21D;50070;-32.946;-60.652;2023-06-22T07:12:41;10.50;118.99
63899;HTU21D;50070;-32.946;-60.652;2023-06-22T07:15:09;10.65;118.99
63899;HTU21D;50070;-32.946;-60.652;2023-06-22T07:17:36;10.38;118.99
63899;HTU21D;50070;-32.946;-60.652;2023-06-22T07:20:04;10.52;118.99
63899;HTU21D;50070;-32.946;-60.652;2023-06-22T07:22:42;10.52;118.99
63899;HTU21D;50070;-32.946;-60.652;2023-06-22T07:25:09;10.70;118.99
63899;HTU21D;50070;-32.946;-60.652;2023-06-22T07:27:43;10.77;118.99
63899;HTU21D;50070;-32.946;-60.652;2023-06-22T07:30:11;10.58;118.99
63899;HTU21D;50070;-32.946;-60.652;2023-06-22T07:32:38;10.71;118.99
63899;HTU21D;50070;-32.946;-60.652;2023-06-22T07:35:05;10.63;118.99
63899;HTU21D;50070;-32.946;-60.652;2023-06-22T07:37:32;10.62;118.99
63899;HTU21D;50070;-32.946;-60.652;2023-06-22T07:40:01;10.46;118.99
63899;HTU21D;50070;-32.946;-60.652;2023-06-22T07:42:30;10.74;118.99
63899;HTU21D;50070;-32.946;-60.652;2023-06-22T07:44:58;10.96;118.99
63899;HTU21D;50070;-32.946;-60.652;2023-06-22T07:47:25;11.18;118.99
63899;HTU21D;50070;-32.946;-60.652;2023-06-22T07:49:55;11.12;118.99
63899;HTU21D;50070;-32.946;-60.652;2023-06-22T07:52:24;10.88;118.99
63899;HTU21D;50070;-32.946;-60.652;2023-06-22T07:54:54;10.98;118.99
63899;HTU21D;50070;-32.946;-60.652;2023-06-22T07:57:21;11.01;118.99
63899;HTU21D;50070;-32.946;-60.652;2023-06-22T07:59:48;11.25;118.99
63899;HTU21D;50070;-32.946;-60.652;2023-06-22T08:02:15;11.02;118.99
63899;HTU21D;50070;-32.946;-60.652;2023-06-22T08:04:41;10.90;118.99
63899;HTU21D;50070;-32.946;-60.652;2023-06-22T08:07:08;11.07;118.99
63899;HTU21D;50070;-32.946;-60.652;2023-06-22T08:09:35;11.37;118.99
63899;HTU21D;50070;-32.946;-60.652;2023-06-22T08:12:03;11.41;118.99
63899;HTU21D;50070;-32.946;-60.652;2023-06-22T08:14:30;11.38;118.99
63899;HTU21D;50070;-32.946;-60.652;2023-06-22T08:16:57;11.29;118.99
63899;HTU21D;50070;-32.946;-60.652;2023-06-22T08:19:24;11.14;118.99
63899;HTU21D;50070;-32.946;-60.652;2023-06-22T08:21:50;11.25;118.99
63899;HTU21D;50070;-32.946;-60.652;2023-06-22T08:24:17;11.28;118.99
63899;HTU21D;50070;-32.946;-60.652;2023-06-22T08:26:44;11.28;118.99
63899;HTU21D;50070;-32.946;-60.652;2023-06-22T08:29:11;11.42;118.99
63899;HTU21D;50070;-32.946;-60.652;2023-06-22T08:31:37;11.26;118.99
63899;HTU21D;50070;-32.946;-60.652;2023-06-22T08:34:04;11.18;118.99
63899;HTU21D;50070;-32.946;-60.652;2023-06-22T08:36:31;11.07;118.99
63899;HTU21D;50070;-32.946;-60.652;2023-06-22T08:39:01;11.20;118.99
63899;HTU21D;50070;-32.946;-60.652;2023-06-22T08:41:29;11.19;118.99
63899;HTU21D;50070;-32.946;-60.652;2023-06-22T08:43:57;11.28;118.99
63899;HTU21D;50070;-32.946;-60.652;2023-06-22T08:46:23;11.48;118.99
63899;HTU21D;50070;-32.946;-60.652;2023-06-22T08:49:00;11.44;118.99
63899;HTU21D;50070;-32.946;-60.652;2023-06-22T08:51:27;11.55;118.99
63899;HTU21D;50070;-32.946;-60.652;2023-06-22T08:53:54;11.63;118.99
63899;HTU21D;50070;-32.946;-60.652;2023-06-22T08:56:21;11.55;118.99
63899;HTU21D;50070;-32.946;-60.652;2023-06-22T08:58:48;11.57;118.99
63899;HTU21D;50070;-32.946;-60.652;2023-06-22T09:01:14;11.48;118.99
63899;HTU21D;50070;-32.946;-60.652;2023-06-22T09:03:42;11.70;118.99
63899;HTU21D;50070;-32.946;-60.652;2023-06-22T09:06:09;11.60;118.99
63899;HTU21D;50070;-32.946;-60.652;2023-06-22T09:08:36;11.36;118.99
63899;HTU21D;50070;-32.946;-60.652;2023-06-22T09:11:03;11.47;118.99
63899;HTU21D;50070;-32.946;-60.652;2023-06-22T09:13:31;11.54;118.99
63899;HTU21D;50070;-32.946;-60.652;2023-06-22T09:15:58;11.37;118.99
63899;HTU21D;50070;-32.946;-60.652;2023-06-22T09:18:25;11.16;118.99
63899;HTU21D;50070;-32.946;-60.652;2023-06-22T09:20:51;11.28;118.99
63899;HTU21D;50070;-32.946;-60.652;2023-06-22T09:23:18;11.67;118.99
63899;HTU21D;50070;-32.946;-60.652;2023-06-22T09:25:45;11.66;118.99
63899;HTU21D;50070;-32.946;-60.652;2023-06-22T09:28:14;11.44;118.99
63899;HTU21D;50070;-32.946;-60.652;2023-06-22T09:30:43;11.49;118.99
63899;HTU21D;50070;-32.946;-60.652;2023-06-22T09:33:10;11.32;118.99
63899;HTU21D;50070;-32.946;-60.652;2023-06-22T09:35:37;11.27;118.99
63899;HTU21D;50070;-32.946;-60.652;2023-06-22T09:38:04;11.25;118.99
63899;HTU21D;50070;-32.946;-60.652;2023-06-22T09:40:31;11.25;118.99
63899;HTU21D;50070;-32.946;-60.652;2023-06-22T09:43:01;11.28;118.99
63899;HTU21D;50070;-32.946;-60.652;2023-06-22T09:45:28;11.41;118.99
63899;HTU21D;50070;-32.946;-60.652;2023-06-22T09:47:55;11.24;118.99
63899;HTU21D;50070;-32.946;-60.652;2023-06-22T09:50:21;11.24;118.99
63899;HTU21D;50070;-32.946;-60.652;2023-06-22T09:52:48;11.16;118.99
63899;HTU21D;50070;-32.946;-60.652;2023-06-22T09:55:21;11.22;118.99
63899;HTU21D;50070;-32.946;-60.652;2023-06-22T09:57:48;11.39;118.99
63899;HTU21D;50070;-32.946;-60.652;2023-06-22T10:00:17;11.25;118.99
63899;HTU21D;50070;-32.946;-60.652;2023-06-22T10:02:46;11.41;118.99
63899;HTU21D;50070;-32.946;-60.652;2023-06-22T10:05:13;11.42;118.99
63899;HTU21D;50070;-32.946;-60.652;2023-06-22T10:07:40;11.34;118.99
63899;HTU21D;50070;-32.946;-60.652;2023-06-22T10:10:10;11.33;118.99
63899;HTU21D;50070;-32.946;-60.652;2023-06-22T10:13:06;11.24;118.99
63899;HTU21D;50070;-32.946;-60.652;2023-06-22T10:15:28;11.31;118.99
63899;HTU21D;50070;-32.946;-60.652;2023-06-22T10:17:54;11.32;118.99
63899;HTU21D;50070;-32.946;-60.652;2023-06-22T10:20:21;11.29;118.99
63899;HTU21D;50070;-32.946;-60.652;2023-06-22T10:22:48;11.42;118.99
63899;HTU21D;50070;-32.946;-60.652;2023-06-22T10:25:15;11.25;118.99
63899;HTU21D;50070;-32.946;-60.652;2023-06-22T10:27:42;11.31;118.99
63899;HTU21D;50070;-32.946;-60.652;2023-06-22T10:30:10;11.52;118.99
63899;HTU21D;50070;-32.946;-60.652;2023-06-22T10:32:39;11.61;118.99
63899;HTU21D;50070;-32.946;-60.652;2023-06-22T10:35:06;11.72;118.99
63899;HTU21D;50070;-32.946;-60.652;2023-06-22T10:37:33;11.47;118.99
63899;HTU21D;50070;-32.946;-60.652;2023-06-22T10:40:00;11.40;118.99
63899;HTU21D;50070;-32.946;-60.652;2023-06-22T10:42:27;11.38;118.99
63899;HTU21D;50070;-32.946;-60.652;2023-06-22T10:44:53;11.38;118.99
63899;HTU21D;50070;-32.946;-60.652;2023-06-22T10:47:20;11.34;118.99
63899;HTU21D;50070;-32.946;-60.652;2023-06-22T10:49:47;11.45;118.99
63899;HTU21D;50070;-32.946;-60.652;2023-06-22T10:52:14;11.48;118.99
63899;HTU21D;50070;-32.946;-60.652;2023-06-22T10:54:41;11.37;118.99
63899;HTU21D;50070;-32.946;-60.652;2023-06-22T10:57:08;11.51;118.99
63899;HTU21D;50070;-32.946;-60.652;2023-06-22T10:59:34;11.59;118.99
63899;HTU21D;50070;-32.946;-60.652;2023-06-22T11:02:01;11.45;118.99
63899;HTU21D;50070;-32.946;-60.652;2023-06-22T11:04:28;11.45;118.99
63899;HTU21D;50070;-32.946;-60.652;2023-06-22T11:06:55;11.48;118.99
63899;HTU21D;50070;-32.946;-60.652;2023-06-22T11:09:22;11.71;118.99
63899;HTU21D;50070;-32.946;-60.652;2023-06-22T11:11:50;11.74;118.99
63899;HTU21D;50070;-32.946;-60.652;2023-06-22T11:14:19;11.70;118.99
63899;HTU21D;50070;-32.946;-60.652;2023-06-22T11:16:47;11.86;118.99
63899;HTU21D;50070;-32.946;-60.652;2023-06-22T11:19:13;11.87;118.99
63899;HTU21D;50070;-32.946;-60.652;2023-06-22T11:21:40;11.64;118.99
63899;HTU21D;50070;-32.946;-60.652;2023-06-22T11:24:07;11.82;118.99
63899;HTU21D;50070;-32.946;-60.652;2023-06-22T11:26:34;11.64;118.99
63899;HTU21D;50070;-32.946;-60.652;2023-06-22T11:29:01;11.32;118.99
63899;HTU21D;50070;-32.946;-60.652;2023-06-22T11:31:32;11.29;118.99
63899;HTU21D;50070;-32.946;-60.652;2023-06-22T11:33:58;11.38;118.99
63899;HTU21D;50070;-32.946;-60.652;2023-06-22T11:36:25;11.31;118.99
63899;HTU21D;50070;-32.946;-60.652;2023-06-22T11:38:52;11.37;118.99
63899;HTU21D;50070;-32.946;-60.652;2023-06-22T11:41:19;11.44;118.99
63899;HTU21D;50070;-32.946;-60.652;2023-06-22T11:43:46;11.40;118.99
63899;HTU21D;50070;-32.946;-60.652;2023-06-22T11:46:13;11.70;118.99
63899;HTU21D;50070;-32.946;-60.652;2023-06-22T11:48:39;11.69;118.99
63899;HTU21D;50070;-32.946;-60.652;2023-06-22T11:51:06;11.73;118.99
63899;HTU21D;50070;-32.946;-60.652;2023-06-22T11:53:34;11.71;118.99
63899;HTU21D;50070;-32.946;-60.652;2023-06-22T11:56:01;11.82;118.99
63899;HTU21D;50070;-32.946;-60.652;2023-06-22T11:58:28;11.76;118.99
63899;HTU21D;50070;-32.946;-60.652;2023-06-22T12:00:55;11.55;118.99
63899;HTU21D;50070;-32.946;-60.652;2023-06-22T12:03:21;11.42;118.99
63899;HTU21D;50070;-32.946;-60.652;2023-06-22T12:05:49;11.39;118.99
63899;HTU21D;50070;-32.946;-60.652;2023-06-22T12:08:16;11.37;118.99
63899;HTU21D;50070;-32.946;-60.652;2023-06-22T12:10:43;11.31;118.99
63899;HTU21D;50070;-32.946;-60.652;2023-06-22T12:13:09;11.47;118.99
63899;HTU21D;50070;-32.946;-60.652;2023-06-22T12:15:36;11.75;118.99
63899;HTU21D;50070;-32.946;-60.652;2023-06-22T12:18:03;11.55;118.99
63899;HTU21D;50070;-32.946;-60.652;2023-06-22T12:20:30;11.61;118.99
63899;HTU21D;50070;-32.946;-60.652;2023-06-22T12:22:57;11.58;118.99
63899;HTU21D;50070;-32.946;-60.652;2023-06-22T12:25:24;11.55;118.99
63899;HTU21D;50070;-32.946;-60.652;2023-06-22T12:27:51;11.85;118.99
63899;HTU21D;50070;-32.946;-60.652;2023-06-22T12:30:18;11.81;118.99
63899;HTU21D;50070;-32.946;-60.652;2023-06-22T12:32:45;11.88;118.99
63899;HTU21D;50070;-32.946;-60.652;2023-06-22T12:35:11;12.03;118.99
63899;HTU21D;50070;-32.946;-60.652;2023-06-22T12:37:41;12.03;118.99
63899;HTU21D;50070;-32.946;-60.652;2023-06-22T12:40:08;11.77;118.99
63899;HTU21D;50070;-32.946;-60.652;2023-06-22T12:42:36;11.78;118.99
63899;HTU21D;50070;-32.946;-60.652;2023-06-22T12:45:03;11.87;118.99
63899;HTU21D;50070;-32.946;-60.652;2023-06-22T12:47:30;11.96;118.99
63899;HTU21D;50070;-32.946;-60.652;2023-06-22T12:49:57;11.88;118.99
63899;HTU21D;50070;-32.946;-60.652;2023-06-22T12:52:24;11.99;118.99
63899;HTU21D;50070;-32.946;-60.652;2023-06-22T12:54:51;12.15;118.99
63899;HTU21D;50070;-32.946;-60.652;2023-06-22T12:57:18;12.26;118.99
63899;HTU21D;50070;-32.946;-60.652;2023-06-22T12:59:45;12.04;118.99
63899;HTU21D;50070;-32.946;-60.652;2023-06-22T13:02:12;12.18;118.99
63899;HTU21D;50070;-32.946;-60.652;2023-06-22T13:04:39;12.20;118.99
63899;HTU21D;50070;-32.946;-60.652;2023-06-22T13:07:06;12.02;118.99
63899;HTU21D;50070;-32.946;-60.652;2023-06-22T13:09:33;12.19;118.99
63899;HTU21D;50070;-32.946;-60.652;2023-06-22T13:12:01;12.19;118.99
63899;HTU21D;50070;-32.946;-60.652;2023-06-22T13:14:28;12.07;118.99
63899;HTU21D;50070;-32.946;-60.652;2023-06-22T13:16:55;12.13;118.99
63899;HTU21D;50070;-32.946;-60.652;2023-06-22T13:19:21;12.18;118.99
63899;HTU21D;50070;-32.946;-60.652;2023-06-22T13:21:48;12.50;118.99
63899;HTU21D;50070;-32.946;-60.652;2023-06-22T13:24:15;12.37;118.99
63899;HTU21D;50070;-32.946;-60.652;2023-06-22T13:26:42;12.13;118.99
63899;HTU21D;50070;-32.946;-60.652;2023-06-22T13:29:09;12.20;118.99
63899;HTU21D;50070;-32.946;-60.652;2023-06-22T13:31:36;12.08;118.99
63899;HTU21D;50070;-32.946;-60.652;2023-06-22T13:34:03;12.26;118.99
63899;HTU21D;50070;-32.946;-60.652;2023-06-22T13:36:30;12.15;118.99
63899;HTU21D;50070;-32.946;-60.652;2023-06-22T13:38:57;12.16;118.99
63899;HTU21D;50070;-32.946;-60.652;2023-06-22T13:41:23;12.20;118.99
63899;HTU21D;50070;-32.946;-60.652;2023-06-22T13:43:50;12.25;118.99
63899;HTU21D;50070;-32.946;-60.652;2023-06-22T13:46:17;12.03;118.99
63899;HTU21D;50070;-32.946;-60.652;2023-06-22T13:48:44;12.01;118.99
63899;HTU21D;50070;-32.946;-60.652;2023-06-22T13:51:11;12.13;118.99
63899;HTU21D;50070;-32.946;-60.652;2023-06-22T13:53:37;12.19;118.99
63899;HTU21D;50070;-32.946;-60.652;2023-06-22T13:56:04;12.26;118.99
63899;HTU21D;50070;-32.946;-60.652;2023-06-22T13:58:31;12.38;118.99
63899;HTU21D;50070;-32.946;-60.652;2023-06-22T14:00:58;12.11;118.99
63899;HTU21D;50070;-32.946;-60.652;2023-06-22T14:03:25;12.16;118.99
63899;HTU21D;50070;-32.946;-60.652;2023-06-22T14:05:51;12.15;118.99
63899;HTU21D;50070;-32.946;-60.652;2023-06-22T14:08:21;11.72;118.99
63899;HTU21D;50070;-32.946;-60.652;2023-06-22T14:10:49;11.70;118.99
63899;HTU21D;50070;-32.946;-60.652;2023-06-22T14:13:16;11.63;118.99
63899;HTU21D;50070;-32.946;-60.652;2023-06-22T14:15:43;11.57;118.99
63899;HTU21D;50070;-32.946;-60.652;2023-06-22T14:18:10;11.62;118.99
63899;HTU21D;50070;-32.946;-60.652;2023-06-22T14:20:36;11.79;118.99
63899;HTU21D;50070;-32.946;-60.652;2023-06-22T14:23:03;11.91;118.99
63899;HTU21D;50070;-32.946;-60.652;2023-06-22T14:25:30;11.77;118.99
63899;HTU21D;50070;-32.946;-60.652;2023-06-22T14:27:57;11.82;118.99
63899;HTU21D;50070;-32.946;-60.652;2023-06-22T14:30:23;11.74;118.99
63899;HTU21D;50070;-32.946;-60.652;2023-06-22T14:32:50;11.88;118.99
63899;HTU21D;50070;-32.946;-60.652;2023-06-22T14:35:17;12.00;118.99